Time;durP1;ratioP1;P1;durP2;ratioP2;P2;SDS_P1;SDS_P2;PMS_P1;PMS_P2;Temp;Humidity;BMP_temperature;BMP_pressure;BME280_temperature;BME280_humidity;BME280_pressure;Samples;Min_cycle;Max_cycle;Signal;HPM_P1;HPM_P2
2021/07/25 02:46:15;;;;;;;8.52;6.55;;;22.70;98.30;;;;;;5375250;24;20358;-80
2021/07/25 02:48:41;;;;;;;10.00;7.80;;;22.70;98.30;;;;;;4816476;29;20032;-79
2021/07/25 02:51:07;;;;;;;9.80;7.22;;;22.80;98.40;;;;;;4787287;30;20031;-79
2021/07/25 02:53:33;;;;;;;11.95;7.05;;;22.80;98.30;;;;;;4802398;30;20031;-79
2021/07/25 02:55:58;;;;;;;10.48;8.25;;;22.80;98.20;;;;;;4803098;30;20031;-78
2021/07/25 02:58:24;;;;;;;10.60;7.32;;;22.80;98.30;;;;;;4787810;30;20127;-79
2021/07/25 03:00:50;;;;;;;9.82;8.00;;;22.80;98.20;;;;;;4802326;30;20343;-79
2021/07/25 03:03:16;;;;;;;11.13;8.35;;;22.70;98.20;;;;;;4803298;30;20231;-79
2021/07/25 03:05:42;;;;;;;12.98;8.60;;;22.60;98.40;;;;;;4788704;30;20038;-79
2021/07/25 03:08:07;;;;;;;10.25;7.68;;;22.60;98.50;;;;;;4803144;29;20031;-79
2021/07/25 03:10:33;;;;;;;12.00;8.00;;;22.60;98.40;;;;;;4802905;29;20031;-79
2021/07/25 03:12:59;;;;;;;15.27;8.10;;;22.50;98.50;;;;;;4804234;29;20039;-79
2021/07/25 03:15:25;;;;;;;13.15;7.95;;;22.40;98.60;;;;;;4788876;30;20088;-79
2021/07/25 03:17:52;;;;;;;16.25;8.35;;;22.40;98.50;;;;;;4788587;30;20060;-79
2021/07/25 03:20:18;;;;;;;;;;;22.30;98.70;;;;;;4789013;30;20130;-79
2021/07/25 03:22:44;;;;;;;13.03;7.33;;;22.20;99.50;;;;;;4805603;30;20192;-79
2021/07/25 03:25:10;;;;;;;11.52;8.27;;;22.20;99.30;;;;;;4788938;30;20288;-79
2021/07/25 03:27:36;;;;;;;10.48;6.82;;;22.20;99.50;;;;;;4803705;29;20098;-79
2021/07/25 03:30:03;;;;;;;10.80;8.05;;;22.20;99.60;;;;;;4803162;30;20039;-79
2021/07/25 03:32:29;;;;;;;;;;;22.20;99.60;;;;;;4787795;30;20043;-79
2021/07/25 03:34:54;;;;;;;13.07;7.80;;;22.20;99.60;;;;;;4787877;30;19909;-79
2021/07/25 03:37:20;;;;;;;10.63;7.35;;;22.20;99.50;;;;;;4791218;30;20098;-79
2021/07/25 03:39:48;;;;;;;11.57;8.07;;;22.20;99.60;;;;;;4806763;30;20063;-79
2021/07/25 03:42:15;;;;;;;11.70;8.65;;;22.20;99.70;;;;;;4808103;29;20086;-79
2021/07/25 03:44:41;;;;;;;12.27;7.85;;;22.30;99.70;;;;;;4807318;29;20070;-80
2021/07/25 03:47:09;;;;;;;11.52;8.23;;;22.20;99.20;;;;;;4806208;29;20051;-79
2021/07/25 03:49:36;;;;;;;10.63;7.75;;;22.30;99.20;;;;;;4807427;29;20046;-79
2021/07/25 03:52:03;;;;;;;10.38;8.40;;;22.40;99.10;;;;;;4807799;29;20031;-78
2021/07/25 03:54:28;;;;;;;10.30;7.40;;;22.50;99.00;;;;;;4807133;30;20092;-78
2021/07/25 03:56:54;;;;;;;10.50;7.60;;;22.50;98.80;;;;;;4792043;29;20326;-78
2021/07/25 03:59:20;;;;;;;12.77;8.10;;;22.60;98.80;;;;;;4792373;30;20145;-79
2021/07/25 04:01:46;;;;;;;12.73;9.13;;;22.50;98.80;;;;;;4807057;29;20095;-79
2021/07/25 04:04:12;;;;;;;9.02;7.85;;;22.60;98.80;;;;;;4807269;30;20046;-79
2021/07/25 04:06:38;;;;;;;14.63;8.30;;;22.60;98.90;;;;;;4808881;29;20023;-79
2021/07/25 04:09:04;;;;;;;11.25;8.20;;;22.60;98.60;;;;;;4808392;29;20054;-79
2021/07/25 04:11:29;;;;;;;14.07;9.02;;;22.70;98.80;;;;;;4806573;30;20092;-79
2021/07/25 04:13:55;;;;;;;11.10;7.60;;;22.60;98.40;;;;;;4806099;29;20111;-79
2021/07/25 04:16:21;;;;;;;9.70;8.30;;;22.60;98.50;;;;;;4791117;30;20039;-78
2021/07/25 04:18:47;;;;;;;12.25;7.65;;;22.70;98.50;;;;;;4821728;29;20061;-79
2021/07/25 04:21:12;;;;;;;9.45;7.28;;;22.70;98.30;;;;;;4806200;30;20100;-79
2021/07/25 04:23:40;;;;;;;10.40;7.78;;;22.80;98.10;;;;;;4791027;30;20061;-79
2021/07/25 04:26:06;;;;;;;10.18;7.10;;;23.00;98.00;;;;;;4806782;30;20027;-79
2021/07/25 04:28:32;;;;;;;11.43;7.70;;;23.10;97.90;;;;;;4806340;30;20094;-79
2021/07/25 04:30:58;;;;;;;9.13;7.82;;;23.10;97.70;;;;;;4821861;29;20027;-79
2021/07/25 04:33:24;;;;;;;13.25;8.00;;;23.20;97.50;;;;;;4806452;29;20110;-78
2021/07/25 04:35:50;;;;;;;12.60;6.93;;;23.10;97.20;;;;;;4821594;29;20051;-79
2021/07/25 04:38:16;;;;;;;10.57;7.23;;;23.20;97.40;;;;;;4807520;29;20307;-79
2021/07/25 04:40:48;;;;;;;14.13;8.02;;;23.20;97.30;;;;;;4806409;30;20031;-79
2021/07/25 04:43:20;;;;;;;12.73;8.50;;;23.30;97.30;;;;;;4805582;29;20038;-79
2021/07/25 04:46:02;;;;;;;10.73;7.57;;;23.50;97.50;;;;;;4806136;30;20047;-79
2021/07/25 04:48:48;;;;;;;11.45;8.00;;;23.70;97.00;;;;;;4805801;29;20027;-79
2021/07/25 04:51:15;;;;;;;14.23;7.30;;;23.70;96.50;;;;;;4791637;30;20031;-79
2021/07/25 04:53:41;;;;;;;;;;;23.80;96.00;;;;;;4791601;30;20031;-79
2021/07/25 04:56:12;;;;;;;12.27;7.07;;;23.70;95.60;;;;;;4789860;30;19918;-78
2021/07/25 04:58:52;;;;;;;11.00;7.53;;;23.70;95.70;;;;;;4805096;30;20051;-79
2021/07/25 05:01:27;;;;;;;9.90;7.72;;;23.70;95.80;;;;;;4788234;30;20038;-79
2021/07/25 05:03:53;;;;;;;13.95;7.78;;;23.90;95.70;;;;;;4803322;30;20027;-78
2021/07/25 05:06:20;;;;;;;8.93;7.25;;;24.00;95.30;;;;;;4805876;30;20035;-79
2021/07/25 05:08:46;;;;;;;9.63;6.55;;;24.00;95.30;;;;;;4804386;29;20031;-79
2021/07/25 05:11:17;;;;;;;10.10;6.80;;;24.10;95.30;;;;;;4791529;30;20087;-79
2021/07/25 05:13:46;;;;;;;10.95;7.20;;;24.20;95.40;;;;;;4797775;30;20204;-79
2021/07/25 05:16:22;;;;;;;10.98;7.05;;;24.30;95.00;;;;;;4806257;30;20042;-79
2021/07/25 05:19:04;;;;;;;9.63;7.07;;;24.40;94.60;;;;;;4807128;29;20102;-79
2021/07/25 05:21:36;;;;;;;9.10;6.95;;;24.50;94.50;;;;;;4783075;30;20200;-79
2021/07/25 05:24:03;;;;;;;12.13;6.63;;;24.40;94.40;;;;;;4806048;30;20031;-79
2021/07/25 05:26:29;;;;;;;12.05;7.53;;;24.20;94.70;;;;;;4801179;30;20031;-79
2021/07/25 05:28:57;;;;;;;6.65;5.45;;;24.20;95.20;;;;;;4803052;30;20067;-78
2021/07/25 05:31:29;;;;;;;8.90;5.80;;;24.30;95.10;;;;;;4791771;30;20035;-78
2021/07/25 05:33:55;;;;;;;8.23;6.63;;;24.40;94.60;;;;;;4822083;29;20042;-79
2021/07/25 05:36:20;;;;;;;7.75;5.55;;;24.40;94.70;;;;;;4791612;30;20028;-79
2021/07/25 05:38:46;;;;;;;7.03;5.65;;;24.30;94.70;;;;;;4792090;30;20054;-79
2021/07/25 05:41:12;;;;;;;9.35;5.47;;;24.20;94.80;;;;;;4806396;29;20031;-79
2021/07/25 05:43:38;;;;;;;9.20;5.95;;;24.20;94.60;;;;;;4806434;30;20035;-79
2021/07/25 05:46:03;;;;;;;9.25;5.95;;;24.20;94.60;;;;;;4790972;30;20074;-78
2021/07/25 05:48:29;;;;;;;8.15;5.82;;;24.50;94.50;;;;;;4805209;30;20031;-78
2021/07/25 05:50:55;;;;;;;5.65;4.88;;;25.10;92.90;;;;;;4789898;30;20042;-78
2021/07/25 05:53:21;;;;;;;9.98;4.85;;;25.80;91.70;;;;;;4789568;30;20035;-79
2021/07/25 05:55:46;;;;;;;9.68;5.90;;;26.40;90.30;;;;;;4789588;30;20035;-78
2021/07/25 05:58:12;;;;;;;7.47;5.28;;;26.50;89.10;;;;;;4819514;29;20069;-79
2021/07/25 06:00:38;;;;;;;13.30;5.88;;;26.50;90.00;;;;;;4804447;29;20051;-79
2021/07/25 06:03:04;;;;;;;7.78;5.45;;;26.60;89.20;;;;;;4818647;29;20075;-78
2021/07/25 06:05:36;;;;;;;5.33;4.60;;;26.90;87.70;;;;;;4788844;30;20071;-79
2021/07/25 06:08:09;;;;;;;9.88;4.53;;;27.50;85.50;;;;;;4802812;30;20052;-78
2021/07/25 06:10:40;;;;;;;7.60;4.32;;;27.80;84.20;;;;;;4803455;30;20027;-78
2021/07/25 06:13:06;;;;;;;7.60;4.18;;;28.10;81.30;;;;;;4803066;30;20299;-79
2021/07/25 06:15:34;;;;;;;9.30;4.90;;;28.10;81.60;;;;;;4796612;29;20239;-79
2021/07/25 06:18:02;;;;;;;6.15;4.88;;;28.20;82.20;;;;;;4793731;30;20027;-80
2021/07/25 06:20:28;;;;;;;6.47;3.75;;;28.30;80.00;;;;;;4789377;30;20033;-81
2021/07/25 06:22:55;;;;;;;5.82;3.95;;;28.50;80.70;;;;;;4784492;29;20024;-81
2021/07/25 06:25:23;;;;;;;;;;;28.70;78.60;;;;;;4772174;30;20059;-82
2021/07/25 06:27:51;;;;;;;4.55;3.55;;;28.90;77.80;;;;;;4778186;30;19909;-82
2021/07/25 06:30:19;;;;;;;5.53;3.67;;;29.00;77.00;;;;;;4796926;29;20027;-82
2021/07/25 06:32:55;;;;;;;5.15;3.67;;;29.10;77.10;;;;;;4783639;30;20049;-82
2021/07/25 06:35:22;;;;;;;7.28;3.25;;;29.10;75.50;;;;;;4799795;30;20031;-82
2021/07/25 06:37:47;;;;;;;5.15;3.50;;;29.10;76.70;;;;;;4798653;29;20031;-82
2021/07/25 06:40:14;;;;;;;4.43;3.10;;;29.20;76.40;;;;;;4785098;30;20042;-82
2021/07/25 06:42:41;;;;;;;6.97;3.85;;;29.40;74.60;;;;;;4798641;29;20051;-82
2021/07/25 06:45:07;;;;;;;7.70;3.73;;;29.50;75.10;;;;;;4782536;30;20031;-83
2021/07/25 06:47:33;;;;;;;5.90;4.25;;;29.70;72.40;;;;;;4794241;29;20402;-82
2021/07/25 06:49:58;;;;;;;5.43;4.20;;;29.60;73.50;;;;;;4781150;30;20046;-82
2021/07/25 06:52:24;;;;;;;5.17;4.10;;;29.60;73.60;;;;;;4812718;29;20032;-82
2021/07/25 06:54:50;;;;;;;5.10;3.90;;;29.70;73.00;;;;;;4782786;30;20330;-82
2021/07/25 06:57:15;;;;;;;8.13;4.03;;;29.80;71.30;;;;;;4798079;30;20034;-81
2021/07/25 06:59:41;;;;;;;7.23;4.43;;;29.80;71.40;;;;;;4782970;30;20039;-84
2021/07/25 07:02:07;;;;;;;7.63;3.60;;;29.80;73.50;;;;;;4795627;30;20023;-82
2021/07/25 07:04:33;;;;;;;6.60;4.60;;;29.90;72.90;;;;;;4782724;30;20342;-82
2021/07/25 07:06:59;;;;;;;7.00;4.50;;;30.00;71.00;;;;;;4779552;30;20036;-83
2021/07/25 07:09:24;;;;;;;6.53;4.37;;;30.00;72.80;;;;;;4765195;30;20058;-83
2021/07/25 07:11:50;;;;;;;7.77;4.53;;;30.00;70.80;;;;;;4781982;30;20102;-83
2021/07/25 07:14:16;;;;;;;9.87;5.67;;;30.00;70.90;;;;;;4782552;30;20031;-83
2021/07/25 07:16:41;;;;;;;5.27;4.73;;;29.70;71.30;;;;;;4798189;29;20126;-82
2021/07/25 07:19:07;;;;;;;8.50;5.60;;;29.60;72.00;;;;;;4785856;29;20242;-82
2021/07/25 07:21:34;;;;;;;6.18;4.88;;;29.50;71.30;;;;;;4782771;30;20092;-82
2021/07/25 07:24:00;;;;;;;8.90;5.63;;;29.30;71.80;;;;;;4782341;30;20327;-82
2021/07/25 07:26:26;;;;;;;6.97;5.47;;;29.10;73.60;;;;;;4797005;30;20027;-82
2021/07/25 07:28:52;;;;;;;6.40;5.30;;;29.00;72.00;;;;;;4782212;30;20031;-82
2021/07/25 07:31:17;;;;;;;11.27;5.47;;;28.80;74.60;;;;;;4765930;30;20107;-82
2021/07/25 07:33:43;;;;;;;6.93;5.73;;;28.70;73.10;;;;;;4774837;30;20040;-82
2021/07/25 07:36:09;;;;;;;6.90;5.53;;;28.80;75.40;;;;;;4786216;30;20114;-82
2021/07/25 07:38:35;;;;;;;6.70;4.77;;;28.80;73.40;;;;;;4782208;30;20046;-82
2021/07/25 07:41:00;;;;;;;11.13;5.50;;;28.90;72.40;;;;;;4794561;30;20034;-82
2021/07/25 07:43:26;;;;;;;9.83;5.90;;;28.80;69.90;;;;;;4784603;30;20085;-82
2021/07/25 07:45:52;;;;;;;5.60;4.43;;;28.70;73.30;;;;;;4781328;30;20190;-82
2021/07/25 07:48:19;;;;;;;8.60;5.40;;;28.60;70.00;;;;;;4783360;30;20031;-81
2021/07/25 07:50:45;;;;;;;8.65;6.43;;;28.50;72.20;;;;;;4796043;30;20292;-81
2021/07/25 07:53:12;;;;;;;7.50;6.10;;;28.50;73.60;;;;;;4795185;30;20047;-81
2021/07/25 07:55:38;;;;;;;7.68;6.03;;;28.40;74.20;;;;;;4798792;30;20039;-81
2021/07/25 07:58:04;;;;;;;8.82;6.10;;;28.20;74.40;;;;;;4785107;30;20046;-81
2021/07/25 08:00:29;;;;;;;8.93;4.27;;;28.30;75.70;;;;;;4785744;30;20023;-81
2021/07/25 08:02:55;;;;;;;7.63;4.77;;;28.40;73.60;;;;;;4814158;29;20059;-81
2021/07/25 08:05:21;;;;;;;9.77;5.17;;;28.60;73.00;;;;;;4783639;30;20027;-80
2021/07/25 08:07:48;;;;;;;8.75;5.25;;;28.70;71.60;;;;;;4782309;30;20066;-81
2021/07/25 08:10:13;;;;;;;;;;;28.80;74.00;;;;;;4784863;30;20035;-81
2021/07/25 08:12:40;;;;;;;8.03;4.97;;;28.80;72.00;;;;;;4792925;29;19938;-81
2021/07/25 08:15:08;;;;;;;7.70;4.73;;;28.80;72.00;;;;;;4800453;30;20362;-82
2021/07/25 08:17:34;;;;;;;10.63;4.43;;;28.90;72.00;;;;;;4785164;30;20027;-81
2021/07/25 08:20:01;;;;;;;5.65;4.32;;;29.00;71.10;;;;;;4800099;30;20047;-81
2021/07/25 08:22:26;;;;;;;7.38;5.22;;;29.00;70.50;;;;;;4786896;30;20042;-82
2021/07/25 08:24:52;;;;;;;9.27;4.10;;;29.30;69.20;;;;;;4790083;30;20339;-82
2021/07/25 08:27:18;;;;;;;7.07;4.70;;;29.30;69.20;;;;;;4783914;30;20223;-82
2021/07/25 08:29:44;;;;;;;6.40;4.27;;;29.20;70.30;;;;;;4800645;29;20106;-83
2021/07/25 08:32:11;;;;;;;7.27;5.00;;;29.00;70.20;;;;;;4803694;29;20082;-83
2021/07/25 08:34:36;;;;;;;;;;;28.60;71.70;;;;;;4788585;30;20047;-83
2021/07/25 08:37:03;;;;;;;6.95;4.75;;;28.40;71.80;;;;;;4788266;30;19944;-83
2021/07/25 08:39:29;;;;;;;7.43;5.15;;;28.30;74.40;;;;;;4802966;30;20042;-83
2021/07/25 08:41:59;;;;;;;8.10;5.07;;;28.50;74.40;;;;;;4818573;29;20222;-83
2021/07/25 08:44:40;;;;;;;7.38;5.55;;;28.70;74.60;;;;;;4803701;29;20062;-83
2021/07/25 08:47:33;;;;;;;9.75;5.22;;;29.00;72.50;;;;;;4784806;29;20071;-82
2021/07/25 08:50:12;;;;;;;11.18;6.22;;;29.40;73.10;;;;;;4803327;30;20092;-83
2021/07/25 08:52:44;;;;;;;9.75;5.60;;;29.60;72.20;;;;;;4802641;29;20039;-83
2021/07/25 08:55:21;;;;;;;10.02;5.90;;;29.60;69.30;;;;;;4803600;30;20042;-82
2021/07/25 08:57:49;;;;;;;7.68;6.78;;;29.70;69.40;;;;;;4784464;30;20039;-83
2021/07/25 09:00:17;;;;;;;10.13;7.00;;;30.00;69.70;;;;;;4800900;30;20417;-83
2021/07/25 09:02:44;;;;;;;10.30;7.82;;;29.90;66.50;;;;;;4793396;30;20027;-83
2021/07/25 09:05:10;;;;;;;10.90;7.15;;;29.60;68.70;;;;;;4797832;30;20039;-82
2021/07/25 09:07:40;;;;;;;;;;;29.60;70.00;;;;;;4805482;30;20059;-84
2021/07/25 09:10:12;;;;;;;7.57;6.68;;;29.80;67.00;;;;;;4788840;30;19939;-83
2021/07/25 09:12:39;;;;;;;8.90;7.35;;;29.90;69.30;;;;;;4783439;30;20047;-83
2021/07/25 09:15:09;;;;;;;11.68;6.78;;;29.80;67.50;;;;;;4776904;30;20074;-83
2021/07/25 09:17:35;;;;;;;9.02;7.43;;;29.80;66.60;;;;;;4788241;29;20043;-83
2021/07/25 09:20:14;;;;;;;8.17;6.63;;;29.90;67.40;;;;;;4788465;30;20051;-83
2021/07/25 09:23:07;;;;;;;7.45;6.30;;;30.00;68.30;;;;;;4804715;30;20285;-82
2021/07/25 09:25:36;;;;;;;12.20;9.00;;;30.40;66.30;;;;;;4803939;29;20134;-82
2021/07/25 09:28:02;;;;;;;13.75;9.10;;;30.70;65.90;;;;;;4788592;30;20039;-82
2021/07/25 09:30:30;;;;;;;10.33;7.80;;;30.50;66.00;;;;;;4787817;30;20039;-82
2021/07/25 09:32:57;;;;;;;13.30;7.97;;;30.40;65.60;;;;;;4786460;30;20043;-81
2021/07/25 09:35:27;;;;;;;11.55;7.20;;;30.30;67.40;;;;;;4788337;30;20031;-81
2021/07/25 09:38:08;;;;;;;8.98;6.93;;;30.40;67.20;;;;;;4802551;30;20031;-81
2021/07/25 09:40:37;;;;;;;9.40;6.70;;;30.50;67.60;;;;;;4788470;30;20042;-82
2021/07/25 09:43:21;;;;;;;8.70;6.38;;;30.70;64.80;;;;;;4787719;30;20037;-82
2021/07/25 09:45:57;;;;;;;8.82;6.43;;;30.70;64.10;;;;;;4802695;30;20047;-81
2021/07/25 09:48:33;;;;;;;8.45;6.97;;;30.60;64.10;;;;;;4792671;30;20039;-81
2021/07/25 09:51:22;;;;;;;14.37;9.17;;;30.60;65.70;;;;;;4783058;30;20107;-80
2021/07/25 09:53:53;;;;;;;9.10;7.68;;;30.70;65.20;;;;;;4801705;30;20070;-80
2021/07/25 09:56:23;;;;;;;9.30;6.65;;;30.70;67.10;;;;;;4771363;30;20047;-79
2021/07/25 09:58:50;;;;;;;10.40;7.15;;;30.80;64.50;;;;;;4770706;30;20047;-81
2021/07/25 10:01:35;;;;;;;9.82;6.90;;;30.70;65.20;;;;;;4767203;30;20067;-82
2021/07/25 10:04:21;;;;;;;6.50;5.90;;;30.90;64.70;;;;;;4780021;30;20191;-81
2021/07/25 10:06:51;;;;;;;7.83;6.93;;;30.90;64.80;;;;;;4768910;30;20035;-81
2021/07/25 10:09:19;;;;;;;10.15;6.97;;;30.90;63.10;;;;;;4772747;30;20043;-81
2021/07/25 10:11:55;;;;;;;10.10;6.47;;;30.80;63.20;;;;;;4772843;30;20047;-81
2021/07/25 10:14:22;;;;;;;8.48;6.78;;;30.60;66.30;;;;;;4773534;30;20118;-81
2021/07/25 10:16:53;;;;;;;9.60;6.85;;;30.50;66.30;;;;;;4766897;30;20058;-83
2021/07/25 10:19:26;;;;;;;10.77;6.22;;;30.60;64.80;;;;;;4786731;30;20031;-83
2021/07/25 10:21:55;;;;;;;7.07;6.32;;;30.60;67.60;;;;;;4770372;30;20031;-81
2021/07/25 10:24:23;;;;;;;8.45;6.68;;;30.70;66.60;;;;;;4768294;30;20035;-82
2021/07/25 10:26:54;;;;;;;9.57;6.95;;;30.80;63.40;;;;;;4785449;30;20070;-81
2021/07/25 10:29:23;;;;;;;11.45;6.63;;;30.90;66.40;;;;;;4783596;30;20031;-82
2021/07/25 10:31:51;;;;;;;8.23;6.28;;;31.20;65.40;;;;;;4794057;30;20297;-83
2021/07/25 10:34:21;;;;;;;8.05;6.20;;;31.40;64.20;;;;;;4801307;29;20039;-83
2021/07/25 10:36:52;;;;;;;29.08;26.17;;;31.60;64.60;;;;;;4784553;30;20031;-80
2021/07/25 10:39:20;;;;;;;31.77;28.60;;;31.70;62.30;;;;;;4801405;30;20051;-82
2021/07/25 10:41:49;;;;;;;12.35;8.90;;;31.90;62.70;;;;;;4795265;29;20031;-79
2021/07/25 10:44:19;;;;;;;12.95;11.48;;;31.70;62.20;;;;;;4784869;30;20031;-81
2021/07/25 10:46:45;;;;;;;17.20;15.60;;;31.70;62.60;;;;;;4786525;30;20327;-79
2021/07/25 10:49:16;;;;;;;10.40;6.60;;;31.50;61.60;;;;;;4800059;30;20031;-81
2021/07/25 10:51:56;;;;;;;12.85;7.68;;;31.40;61.70;;;;;;4800266;30;20031;-82
2021/07/25 10:54:24;;;;;;;9.52;7.53;;;31.30;62.80;;;;;;4801363;29;20031;-79
2021/07/25 10:57:12;;;;;;;17.70;7.32;;;31.20;64.00;;;;;;4802035;30;20031;-81
2021/07/25 10:59:55;;;;;;;7.60;6.43;;;31.20;63.80;;;;;;4786648;30;20106;-81
2021/07/25 11:02:21;;;;;;;9.75;7.55;;;31.30;61.70;;;;;;4801953;30;20050;-81
2021/07/25 11:04:50;;;;;;;10.63;7.33;;;31.20;63.90;;;;;;4802378;29;20039;-81
2021/07/25 11:07:22;;;;;;;17.98;7.38;;;31.30;63.00;;;;;;4801641;30;20037;-81
2021/07/25 11:09:54;;;;;;;10.50;7.10;;;31.20;65.50;;;;;;4801464;30;20045;-81
2021/07/25 11:12:20;;;;;;;11.45;7.20;;;31.30;63.30;;;;;;4786224;30;20031;-81
2021/07/25 11:15:07;;;;;;;13.80;8.03;;;31.30;62.90;;;;;;4787447;30;20284;-81
2021/07/25 11:17:45;;;;;;;8.32;7.38;;;31.30;64.60;;;;;;4793143;30;20036;-80
2021/07/25 11:20:35;;;;;;;10.75;7.68;;;31.40;61.90;;;;;;4792177;29;20042;-82
2021/07/25 11:23:09;;;;;;;11.43;8.70;;;31.20;64.00;;;;;;4799268;30;20035;-82
2021/07/25 11:25:36;;;;;;;11.93;9.23;;;31.10;62.80;;;;;;4781444;30;20286;-82
2021/07/25 11:28:07;;;;;;;12.32;7.55;;;31.30;64.00;;;;;;4787522;30;20035;-83
2021/07/25 11:30:48;;;;;;;14.48;8.57;;;31.50;61.70;;;;;;4797307;30;20031;-84
2021/07/25 11:33:45;;;;;;;11.85;7.53;;;31.30;64.00;;;;;;4800928;30;20084;-83
2021/07/25 11:36:11;;;;;;;10.73;7.22;;;31.10;62.30;;;;;;4800557;29;20072;-80
2021/07/25 11:38:38;;;;;;;18.13;13.30;;;31.10;65.60;;;;;;4811834;29;20036;-81
2021/07/25 11:41:05;;;;;;;22.27;16.65;;;31.20;63.10;;;;;;4787167;29;20039;-80
2021/07/25 11:43:50;;;;;;;;;;;31.40;62.40;;;;;;4805711;29;20046;-80
2021/07/25 11:46:26;;;;;;;12.55;8.73;;;31.50;62.30;;;;;;4786998;29;20242;-82
2021/07/25 11:49:10;;;;;;;8.00;6.57;;;31.60;61.70;;;;;;4786771;30;20086;-82
2021/07/25 11:51:40;;;;;;;8.52;6.40;;;31.70;60.70;;;;;;4799643;30;20031;-79
2021/07/25 11:54:06;;;;;;;9.00;6.93;;;31.80;60.90;;;;;;4799422;30;20031;-79
2021/07/25 11:56:32;;;;;;;9.23;7.20;;;31.70;63.00;;;;;;4782910;30;20038;-80
2021/07/25 11:59:08;;;;;;;16.30;7.23;;;31.80;60.70;;;;;;4795549;30;20184;-79
2021/07/25 12:01:36;;;;;;;12.20;7.80;;;31.80;60.50;;;;;;4819020;29;20043;-80
2021/07/25 12:04:19;;;;;;;8.50;7.50;;;31.60;59.90;;;;;;4790285;30;20042;-80
2021/07/25 12:06:45;;;;;;;7.53;6.72;;;31.50;61.80;;;;;;4805081;30;20027;-80
2021/07/25 12:09:11;;;;;;;12.45;8.98;;;31.60;59.70;;;;;;4804576;30;20311;-80
2021/07/25 12:11:39;;;;;;;12.50;7.87;;;31.60;60.70;;;;;;4804883;30;20035;-81
2021/07/25 12:14:05;;;;;;;11.45;8.43;;;31.70;61.40;;;;;;4803478;30;20058;-80
2021/07/25 12:16:48;;;;;;;11.18;8.93;;;31.90;60.50;;;;;;4788884;30;20023;-79
2021/07/25 12:19:15;;;;;;;12.02;8.07;;;31.80;60.80;;;;;;4786366;30;20110;-79
2021/07/25 12:21:42;;;;;;;10.65;8.20;;;31.80;60.40;;;;;;4787606;30;20035;-80
2021/07/25 12:24:28;;;;;;;10.25;9.13;;;31.80;63.40;;;;;;4802866;30;20035;-80
2021/07/25 12:26:54;;;;;;;8.85;7.55;;;31.90;59.60;;;;;;4788662;30;20043;-79
2021/07/25 12:29:40;;;;;;;8.75;7.88;;;32.00;60.70;;;;;;4798734;29;20215;-78
2021/07/25 12:32:23;;;;;;;9.40;7.40;;;32.10;60.40;;;;;;4797574;30;20094;-77
2021/07/25 12:34:54;;;;;;;20.48;8.98;;;32.40;59.30;;;;;;4814690;29;20057;-76
2021/07/25 12:37:31;;;;;;;11.18;7.57;;;32.30;59.80;;;;;;4795992;30;20077;-76
2021/07/25 12:40:26;;;;;;;11.32;8.13;;;32.10;59.10;;;;;;4797692;29;20047;-78
2021/07/25 12:42:59;;;;;;;11.00;8.20;;;32.00;63.00;;;;;;4797376;30;20035;-77
2021/07/25 12:45:28;;;;;;;14.30;8.48;;;31.90;61.00;;;;;;4799127;29;20118;-77
2021/07/25 12:48:13;;;;;;;11.80;8.07;;;32.00;62.90;;;;;;4800970;30;20097;-78
2021/07/25 12:51:00;;;;;;;10.70;8.57;;;32.20;60.20;;;;;;4801630;29;20035;-79
2021/07/25 12:53:32;;;;;;;11.18;8.27;;;32.40;59.70;;;;;;4800521;30;20039;-78
2021/07/25 12:55:59;;;;;;;10.38;8.02;;;32.30;62.20;;;;;;4797716;29;20039;-77
2021/07/25 12:58:34;;;;;;;10.80;8.05;;;32.50;62.10;;;;;;4798105;29;20043;-78
2021/07/25 13:03:44;;;;;;;8.85;7.93;;;32.90;60.30;;;;;;4792921;29;20027;-78
2021/07/25 13:06:18;;;;;;;9.60;8.70;;;33.10;58.10;;;;;;4790371;30;20352;-78
2021/07/25 13:08:45;;;;;;;11.77;7.50;;;33.00;61.30;;;;;;4793071;29;20051;-77
2021/07/25 13:11:13;;;;;;;10.63;8.20;;;33.00;57.00;;;;;;4811758;29;20086;-77
2021/07/25 13:13:43;;;;;;;14.25;8.38;;;32.90;57.70;;;;;;4797585;30;20039;-77
2021/07/25 13:16:15;;;;;;;14.02;9.75;;;32.70;58.60;;;;;;4812016;29;20039;-77
2021/07/25 13:18:42;;;;;;;11.43;9.65;;;32.70;60.80;;;;;;4798450;29;20102;-78
2021/07/25 13:21:09;;;;;;;12.65;9.70;;;32.80;57.10;;;;;;4797692;30;20039;-77
2021/07/25 13:23:35;;;;;;;9.68;8.18;;;32.90;58.20;;;;;;4811657;29;20031;-77
2021/07/25 13:26:02;;;;;;;10.95;9.60;;;33.00;57.70;;;;;;4792646;30;20035;-78
2021/07/25 13:28:28;;;;;;;12.43;7.88;;;33.00;58.50;;;;;;4793391;29;20327;-78
2021/07/25 13:30:54;;;;;;;9.70;8.00;;;33.00;59.10;;;;;;4808449;29;20053;-78
2021/07/25 13:33:20;;;;;;;13.33;7.90;;;33.10;56.70;;;;;;4793260;29;20046;-77
2021/07/25 13:35:49;;;;;;;10.97;8.97;;;33.30;55.60;;;;;;4792606;29;20281;-77
2021/07/25 13:38:15;;;;;;;9.68;7.85;;;33.30;56.30;;;;;;4789728;29;20031;-78
2021/07/25 13:40:41;;;;;;;10.57;8.68;;;33.30;57.60;;;;;;4789344;29;20038;-77
2021/07/25 13:43:11;;;;;;;17.27;8.93;;;33.30;56.50;;;;;;4790706;30;20485;-78
2021/07/25 13:45:43;;;;;;;11.85;8.90;;;33.20;57.20;;;;;;4787195;30;20046;-77
2021/07/25 13:48:11;;;;;;;13.52;9.55;;;33.10;57.10;;;;;;4793200;30;20042;-77
2021/07/25 13:50:37;;;;;;;12.00;10.05;;;32.90;56.50;;;;;;4794323;29;20043;-77
2021/07/25 13:53:04;;;;;;;13.65;10.43;;;32.80;57.40;;;;;;4774350;30;20107;-77
2021/07/25 13:55:34;;;;;;;10.18;8.43;;;32.70;59.20;;;;;;4790850;30;20043;-77
2021/07/25 13:58:01;;;;;;;9.40;8.40;;;32.80;57.40;;;;;;4793483;30;20101;-77
2021/07/25 14:00:27;;;;;;;11.05;9.80;;;32.80;56.80;;;;;;4794825;29;20043;-78
2021/07/25 14:02:53;;;;;;;10.02;8.77;;;32.80;57.40;;;;;;4792681;30;20023;-78
2021/07/25 14:05:19;;;;;;;10.37;9.37;;;32.60;57.80;;;;;;4779085;30;20299;-76
2021/07/25 14:07:45;;;;;;;15.53;9.87;;;32.60;57.40;;;;;;4790411;30;20080;-78
2021/07/25 14:10:11;;;;;;;12.53;9.93;;;32.60;58.00;;;;;;4795654;30;20388;-77
2021/07/25 14:12:36;;;;;;;10.00;9.03;;;32.70;57.90;;;;;;4795807;29;20039;-77
2021/07/25 14:15:04;;;;;;;16.40;8.20;;;32.70;58.20;;;;;;4791851;29;20222;-77
2021/07/25 14:17:29;;;;;;;12.93;10.15;;;32.80;56.30;;;;;;4791793;30;20027;-77
2021/07/25 14:19:55;;;;;;;12.70;9.67;;;32.60;57.80;;;;;;4797171;29;20042;-77
2021/07/25 14:22:22;;;;;;;12.43;9.50;;;32.70;58.10;;;;;;4780685;30;20046;-78
2021/07/25 14:24:48;;;;;;;9.40;8.02;;;32.70;56.30;;;;;;4797136;30;20038;-78
2021/07/25 14:27:15;;;;;;;13.57;9.07;;;32.70;56.00;;;;;;4796182;30;20044;-77
2021/07/25 14:29:40;;;;;;;12.20;10.07;;;32.60;56.60;;;;;;4793354;29;20044;-77
2021/07/25 14:32:06;;;;;;;11.70;10.27;;;32.40;56.00;;;;;;4797557;29;20031;-78
2021/07/25 14:34:32;;;;;;;12.33;9.43;;;32.10;57.80;;;;;;4795689;30;20099;-77
2021/07/25 14:36:58;;;;;;;11.43;9.83;;;31.90;58.40;;;;;;4794765;29;20031;-77
2021/07/25 14:39:23;;;;;;;14.23;9.63;;;31.80;58.60;;;;;;4797940;29;20031;-76
2021/07/25 14:41:49;;;;;;;14.60;9.70;;;31.70;60.60;;;;;;4811737;29;20035;-77
2021/07/25 14:44:15;;;;;;;9.20;8.00;;;31.80;59.70;;;;;;4797807;29;20032;-77
2021/07/25 14:46:40;;;;;;;9.57;8.63;;;32.00;58.60;;;;;;4793621;30;20317;-78
2021/07/25 14:49:06;;;;;;;9.17;8.27;;;32.00;58.30;;;;;;4791634;30;20034;-77
2021/07/25 14:51:32;;;;;;;10.20;8.40;;;32.00;57.10;;;;;;4795756;29;20035;-78
2021/07/25 14:53:58;;;;;;;9.53;8.60;;;31.90;58.00;;;;;;4797919;29;20065;-78
2021/07/25 14:56:24;;;;;;;9.70;8.70;;;31.90;58.70;;;;;;4811821;29;20046;-78
2021/07/25 14:58:49;;;;;;;9.37;8.37;;;32.00;58.60;;;;;;4796614;30;20249;-77
2021/07/25 15:01:17;;;;;;;10.23;8.57;;;31.90;58.70;;;;;;4796220;30;20062;-77
2021/07/25 15:03:44;;;;;;;16.98;9.60;;;31.90;59.20;;;;;;4796364;30;20325;-77
2021/07/25 15:06:21;;;;;;;13.85;10.35;;;31.90;59.60;;;;;;4797709;29;20027;-77
2021/07/25 15:08:46;;;;;;;;;;;31.90;59.70;;;;;;4796752;29;20035;-77
2021/07/25 15:11:13;;;;;;;15.38;9.07;;;31.80;59.00;;;;;;4796281;30;19909;-76
2021/07/25 15:13:39;;;;;;;10.90;9.55;;;31.70;58.60;;;;;;4795522;29;20031;-76
2021/07/25 15:16:06;;;;;;;17.15;8.82;;;31.70;58.80;;;;;;4792162;29;20066;-77
2021/07/25 15:18:32;;;;;;;10.10;9.10;;;31.60;58.80;;;;;;4790041;30;20346;-77
2021/07/25 15:20:57;;;;;;;11.47;9.27;;;31.50;59.40;;;;;;4795129;30;20038;-76
2021/07/25 15:23:23;;;;;;;14.17;9.43;;;31.50;59.70;;;;;;4795709;29;20035;-76
2021/07/25 15:25:49;;;;;;;9.77;7.97;;;31.50;58.60;;;;;;4775585;30;20027;-76
2021/07/25 15:28:15;;;;;;;10.03;9.03;;;31.40;58.70;;;;;;4793926;30;20216;-77
2021/07/25 15:30:40;;;;;;;12.43;9.27;;;31.40;59.90;;;;;;4791031;29;20229;-77
2021/07/25 15:33:06;;;;;;;10.10;8.53;;;31.40;59.90;;;;;;4792426;30;20038;-77
2021/07/25 15:35:35;;;;;;;9.67;8.63;;;31.40;61.30;;;;;;4794578;30;20322;-77
2021/07/25 15:38:01;;;;;;;11.80;8.52;;;31.40;60.00;;;;;;4791471;29;20035;-77
2021/07/25 15:40:27;;;;;;;12.52;8.13;;;31.40;59.70;;;;;;4791555;30;20094;-77